createdAt,value
2022-07-25T00:02:30.234Z,2.22
2022-07-25T00:19:21.848Z,2.28
2022-07-25T00:45:21.660Z,2.50
2022-07-25T00:51:01.710Z,1.75
2022-07-25T00:54:04.641Z,2.20
2022-07-25T01:00:24.819Z,2.47
2022-07-25T01:02:58.057Z,2.60
2022-07-25T01:13:03.883Z,2.85
2022-07-25T01:16:02.614Z,3.10
2022-07-25T01:21:59.323Z,3.03
2022-07-25T01:24:26.139Z,3.00
2022-07-25T01:26:52.814Z,3.15
2022-07-25T01:29:19.455Z,2.88
2022-07-25T01:31:46.364Z,3.28
2022-07-25T01:34:13.086Z,3.00
2022-07-25T01:36:39.768Z,3.20
2022-07-25T01:39:09.034Z,3.05
2022-07-25T01:41:35.857Z,3.08
2022-07-25T01:44:02.740Z,2.78
2022-07-25T01:46:29.945Z,2.90
2022-07-25T01:48:56.770Z,3.00
2022-07-25T01:51:23.654Z,3.13
2022-07-25T01:53:53.433Z,3.17
2022-07-25T01:56:22.506Z,2.88
2022-07-25T01:58:49.401Z,3.05
2022-07-25T02:01:21.842Z,3.13
2022-07-25T02:04:04.387Z,2.55
2022-07-25T02:06:49.904Z,2.55
2022-07-25T02:09:43.402Z,2.67
2022-07-25T02:12:24.954Z,2.60
2022-07-25T02:15:03.549Z,2.60
2022-07-25T02:17:49.685Z,2.88
2022-07-25T02:20:37.336Z,3.03
2022-07-25T02:23:26.588Z,3.72
2022-07-25T02:26:06.058Z,3.53
2022-07-25T02:29:16.530Z,3.20
2022-07-25T02:42:50.401Z,3.58
2022-07-25T02:45:34.742Z,3.60
2022-07-25T02:48:32.385Z,3.88
2022-07-25T02:51:20.974Z,3.33
2022-07-25T02:59:38.577Z,4.35
2022-07-25T03:02:16.387Z,4.28
2022-07-25T03:05:00.983Z,3.95
2022-07-25T03:08:02.266Z,3.90
2022-07-25T03:27:22.753Z,3.95
2022-07-25T03:33:09.026Z,3.35
2022-07-25T03:38:57.474Z,3.80
2022-07-25T03:41:35.890Z,3.95
2022-07-25T03:44:11.219Z,3.90
2022-07-25T03:47:20.355Z,4.03
2022-07-25T03:56:53.607Z,4.38
2022-07-25T03:59:26.716Z,4.05
2022-07-25T04:08:45.622Z,4.15
2022-07-25T04:12:16.855Z,4.85
2022-07-25T04:15:32.812Z,4.88
2022-07-25T04:25:22.490Z,5.00
2022-07-25T04:37:16.156Z,5.07
2022-07-25T04:39:42.895Z,5.47
2022-07-25T04:42:09.530Z,5.38
2022-07-25T04:44:36.596Z,5.20
2022-07-25T04:47:03.662Z,5.43
2022-07-25T04:49:30.329Z,6.00
2022-07-25T04:51:57.021Z,5.95
2022-07-25T04:54:25.302Z,6.28
2022-07-25T04:56:52.296Z,5.53
2022-07-25T04:59:19.140Z,5.80
2022-07-25T05:01:46.153Z,5.60
2022-07-25T05:04:12.920Z,5.53
2022-07-25T05:06:43.063Z,5.78
2022-07-25T05:12:53.634Z,6.00
2022-07-25T05:15:25.911Z,5.68
2022-07-25T05:17:53.032Z,6.20
2022-07-25T05:20:19.890Z,6.03
2022-07-25T05:22:48.601Z,5.93
2022-07-25T05:25:38.437Z,6.18
2022-07-25T05:28:29.005Z,7.00
2022-07-25T05:30:56.205Z,6.80
2022-07-25T05:33:23.210Z,6.82
2022-07-25T05:35:56.850Z,6.57
2022-07-25T05:38:23.850Z,6.47
2022-07-25T05:40:58.631Z,6.78
2022-07-25T05:43:27.024Z,7.25
2022-07-25T05:46:00.488Z,7.25
2022-07-25T05:48:31.488Z,7.25
2022-07-25T05:51:10.422Z,6.90
2022-07-25T05:53:45.862Z,7.32
2022-07-25T05:56:14.249Z,6.95
2022-07-25T05:58:45.277Z,7.93
2022-07-25T06:01:20.910Z,7.78
2022-07-25T06:03:47.870Z,7.82
2022-07-25T06:06:20.989Z,7.50
2022-07-25T06:08:47.910Z,7.60
2022-07-25T06:11:21.746Z,7.68
2022-07-25T06:13:54.061Z,7.65
2022-07-25T06:16:28.589Z,8.23
2022-07-25T06:18:55.901Z,8.02
2022-07-25T06:21:37.362Z,8.13
2022-07-25T06:24:08.771Z,8.48
2022-07-25T06:26:59.307Z,8.82
2022-07-25T06:29:31.627Z,8.75
2022-07-25T06:32:15.914Z,9.38
2022-07-25T06:34:43.179Z,9.23
2022-07-25T06:37:09.920Z,8.88
2022-07-25T06:39:36.725Z,8.98
2022-07-25T06:42:03.688Z,8.95
2022-07-25T06:44:44.625Z,8.93
2022-07-25T06:47:11.940Z,9.45
2022-07-25T06:49:39.176Z,8.30
2022-07-25T06:52:05.969Z,8.95
2022-07-25T06:54:32.835Z,9.13
2022-07-25T06:56:59.513Z,9.27
2022-07-25T06:59:26.416Z,8.27
2022-07-25T07:01:54.717Z,8.95
2022-07-25T07:04:21.421Z,8.55
2022-07-25T07:06:48.126Z,9.10
2022-07-25T07:09:14.973Z,8.27
2022-07-25T07:11:41.698Z,8.07
2022-07-25T07:14:08.674Z,8.07
2022-07-25T07:16:35.914Z,7.13
2022-07-25T07:19:04.623Z,6.75
2022-07-25T07:21:31.715Z,7.13
2022-07-25T07:23:58.532Z,6.50
2022-07-25T07:26:25.296Z,5.97
2022-07-25T07:28:52.215Z,6.28
2022-07-25T07:31:19.277Z,5.80
2022-07-25T07:33:46.357Z,5.25
2022-07-25T07:36:14.606Z,4.93
2022-07-25T07:38:41.424Z,4.90
2022-07-25T07:41:08.255Z,4.18
2022-07-25T07:43:34.967Z,3.70
2022-07-25T07:46:02.014Z,3.40
2022-07-25T07:57:48.811Z,1.25
2022-07-25T08:00:32.007Z,1.42
2022-07-25T08:03:22.098Z,1.40
2022-07-25T08:05:51.975Z,1.10
2022-07-25T08:08:24.129Z,1.17
2022-07-25T08:11:15.807Z,1.55
2022-07-25T08:13:53.870Z,1.33
2022-07-25T08:16:24.210Z,1.50
2022-07-25T08:18:56.744Z,1.67
2022-07-25T08:21:28.638Z,1.75
2022-07-25T08:23:56.729Z,1.67
2022-07-25T08:26:25.479Z,1.70
2022-07-25T08:29:11.108Z,1.60
2022-07-25T08:31:40.563Z,1.90
2022-07-25T08:34:07.873Z,1.40
2022-07-25T08:37:04.112Z,1.50
2022-07-25T08:39:35.494Z,1.67
2022-07-25T08:42:11.441Z,1.50
2022-07-25T08:44:55.976Z,1.45
2022-07-25T08:47:30.352Z,1.30
2022-07-25T08:50:13.961Z,1.50
2022-07-25T08:53:35.561Z,1.83
2022-07-25T08:56:18.850Z,1.80
2022-07-25T08:58:50.768Z,1.60
2022-07-25T09:01:20.876Z,1.85
2022-07-25T09:03:50.698Z,2.00
2022-07-25T09:06:43.837Z,1.50
2022-07-25T09:09:36.784Z,1.80
2022-07-25T09:15:09.145Z,1.80
2022-07-25T09:18:03.804Z,1.70
2022-07-25T09:20:53.713Z,1.90
2022-07-25T09:23:42.768Z,1.80
2022-07-25T09:26:16.574Z,1.80
2022-07-25T09:29:16.027Z,1.70
2022-07-25T09:32:17.471Z,1.73
2022-07-25T09:34:50.468Z,1.70
2022-07-25T09:40:26.312Z,1.80
2022-07-25T09:47:00.529Z,1.65
2022-07-25T09:49:45.378Z,2.00
2022-07-25T09:52:17.216Z,1.73
2022-07-25T09:54:55.881Z,1.92
2022-07-25T09:57:46.495Z,2.33
2022-07-25T10:00:26.412Z,1.77
2022-07-25T10:06:50.459Z,1.92
2022-07-25T10:09:21.269Z,2.15
2022-07-25T10:12:10.266Z,2.38
2022-07-25T10:14:43.294Z,2.40
2022-07-25T10:17:31.151Z,2.90
2022-07-25T10:20:01.247Z,2.35
2022-07-25T10:22:56.290Z,2.40
2022-07-25T10:25:31.225Z,2.50
2022-07-25T10:31:14.507Z,2.72
2022-07-25T10:34:00.604Z,1.92
2022-07-25T10:36:48.970Z,2.20
2022-07-25T10:39:29.626Z,2.30
2022-07-25T10:42:01.762Z,2.33
2022-07-25T10:44:58.730Z,1.95
2022-07-25T10:50:53.360Z,2.33
2022-07-25T10:53:51.169Z,2.65
2022-07-25T10:56:27.459Z,2.35
2022-07-25T10:59:32.623Z,2.75
2022-07-25T11:08:19.946Z,2.10
2022-07-25T11:16:35.300Z,2.50
2022-07-25T11:19:19.957Z,1.80
2022-07-25T11:22:01.537Z,1.70
2022-07-25T11:24:44.231Z,1.90
2022-07-25T11:27:28.649Z,1.48
2022-07-25T11:30:20.717Z,1.55
2022-07-25T11:33:00.084Z,1.85
2022-07-25T11:35:55.579Z,1.70
2022-07-25T11:38:31.001Z,1.70
2022-07-25T11:43:53.414Z,1.50
2022-07-25T11:46:34.339Z,1.67
2022-07-25T11:49:15.319Z,2.00
2022-07-25T11:51:48.497Z,1.95
2022-07-25T11:54:36.439Z,2.10
2022-07-25T11:57:29.950Z,2.00
2022-07-25T12:00:24.145Z,1.98
2022-07-25T12:03:19.386Z,2.00
2022-07-25T12:09:05.994Z,2.10
2022-07-25T12:12:09.282Z,1.85
2022-07-25T12:14:53.146Z,1.85
2022-07-25T12:21:04.101Z,1.80
2022-07-25T12:26:26.095Z,1.70
2022-07-25T12:28:56.919Z,1.92
2022-07-25T12:31:43.426Z,1.92
2022-07-25T12:34:18.864Z,2.38
2022-07-25T12:37:04.320Z,2.28
2022-07-25T12:40:00.190Z,2.65
2022-07-25T12:42:42.358Z,1.98
2022-07-25T12:45:32.275Z,2.33
2022-07-25T12:48:14.323Z,2.00
2022-07-25T12:50:50.938Z,2.50
2022-07-25T12:56:47.262Z,2.53
2022-07-25T13:02:20.995Z,2.58
2022-07-25T13:05:04.937Z,3.20
2022-07-25T13:07:38.420Z,2.63
2022-07-25T13:10:37.628Z,2.33
2022-07-25T13:13:18.635Z,2.20
2022-07-25T13:16:07.096Z,2.00
2022-07-25T13:18:44.311Z,2.70
2022-07-25T13:21:25.343Z,2.38
2022-07-25T13:27:06.686Z,2.70
2022-07-25T13:32:33.578Z,2.10
2022-07-25T13:35:20.688Z,2.00
2022-07-25T13:38:06.209Z,2.17
2022-07-25T13:40:59.181Z,2.17
2022-07-25T13:43:39.127Z,2.00
2022-07-25T13:46:27.121Z,1.70
2022-07-25T13:49:24.162Z,2.08
2022-07-25T13:52:28.445Z,1.85
2022-07-25T13:55:01.854Z,1.90
2022-07-25T13:57:45.016Z,2.05
2022-07-25T14:00:17.133Z,2.80
2022-07-25T14:03:19.085Z,2.30
2022-07-25T14:06:06.694Z,2.40
2022-07-25T14:09:09.279Z,1.80
2022-07-25T14:17:41.581Z,2.05
2022-07-25T14:20:35.969Z,1.92
2022-07-25T14:23:13.701Z,1.58
2022-07-25T14:25:54.783Z,1.77
2022-07-25T14:28:52.796Z,1.85
2022-07-25T14:31:23.764Z,1.92
2022-07-25T14:34:01.286Z,1.83
2022-07-25T14:36:43.199Z,1.92
2022-07-25T14:39:24.728Z,1.67
2022-07-25T14:41:59.843Z,1.80
2022-07-25T14:47:36.339Z,2.70
2022-07-25T14:50:24.671Z,1.98
2022-07-25T14:52:59.358Z,2.28
2022-07-25T14:55:35.864Z,2.03
2022-07-25T15:01:39.851Z,2.08
2022-07-25T15:04:14.423Z,1.90
2022-07-25T15:09:41.268Z,2.05
2022-07-25T15:12:28.340Z,2.58
2022-07-25T15:15:16.428Z,2.10
2022-07-25T15:17:49.832Z,1.85
2022-07-25T15:20:30.814Z,2.33
2022-07-25T15:27:18.492Z,2.63
2022-07-25T15:33:33.739Z,1.65
2022-07-25T15:36:10.189Z,1.75
2022-07-25T15:49:26.649Z,2.15
2022-07-25T15:52:20.229Z,1.65
2022-07-25T15:58:07.638Z,2.13
2022-07-25T16:00:49.879Z,2.33
2022-07-25T16:04:27.843Z,2.30
2022-07-25T16:10:31.581Z,2.13
2022-07-25T16:19:33.253Z,2.45
2022-07-25T16:30:41.854Z,2.40
2022-07-25T16:36:34.383Z,2.03
2022-07-25T16:49:25.523Z,2.22
2022-07-25T16:54:59.942Z,1.95
2022-07-25T16:57:26.642Z,2.33
2022-07-25T16:59:53.782Z,2.20
2022-07-25T17:02:20.695Z,1.85
2022-07-25T17:04:53.637Z,1.95
2022-07-25T17:07:21.840Z,2.10
2022-07-25T17:09:48.874Z,2.45
2022-07-25T17:12:15.640Z,2.65
2022-07-25T17:14:42.367Z,1.90
2022-07-25T17:17:09.187Z,2.75
2022-07-25T17:19:36.150Z,1.90
2022-07-25T17:22:04.523Z,2.20
2022-07-25T17:24:33.053Z,2.25
2022-07-25T17:27:00.541Z,2.10
2022-07-25T17:29:36.007Z,2.60
2022-07-25T17:32:02.859Z,1.75
2022-07-25T17:34:30.670Z,2.28
2022-07-25T17:36:57.404Z,2.60
2022-07-25T17:39:25.426Z,1.70
2022-07-25T17:41:54.037Z,1.83
2022-07-25T17:44:20.989Z,2.10
2022-07-25T17:46:47.858Z,2.08
2022-07-25T17:49:14.756Z,2.13
2022-07-25T17:51:42.045Z,2.20
2022-07-25T17:54:10.268Z,2.00
2022-07-25T17:56:40.862Z,1.90
2022-07-25T17:59:09.289Z,1.85
2022-07-25T18:01:37.452Z,2.30
2022-07-25T18:04:06.011Z,2.03
2022-07-25T18:06:33.391Z,2.28
2022-07-25T18:09:00.483Z,2.60
2022-07-25T18:11:27.332Z,1.92
2022-07-25T18:13:54.274Z,2.50
2022-07-25T18:16:22.955Z,2.60
2022-07-25T18:18:49.826Z,2.25
2022-07-25T18:21:16.527Z,2.55
2022-07-25T18:23:43.240Z,3.20
2022-07-25T18:26:12.064Z,2.63
2022-07-25T18:28:38.818Z,2.35
2022-07-25T18:31:05.988Z,2.58
2022-07-25T18:33:34.360Z,2.25
2022-07-25T18:36:06.950Z,2.60
2022-07-25T18:38:34.398Z,2.28
2022-07-25T18:41:26.472Z,3.05
2022-07-25T18:43:48.739Z,2.70
2022-07-25T18:46:15.951Z,2.28
2022-07-25T18:48:45.316Z,2.10
2022-07-25T18:51:12.133Z,2.72
2022-07-25T18:53:39.334Z,2.75
2022-07-25T18:56:06.399Z,2.53
2022-07-25T18:58:33.188Z,2.78
2022-07-25T19:01:01.338Z,2.50
2022-07-25T19:03:28.111Z,3.00
2022-07-25T19:06:01.265Z,2.85
2022-07-25T19:08:32.321Z,2.40
2022-07-25T19:10:59.153Z,2.45
2022-07-25T19:13:48.329Z,2.80
2022-07-25T19:16:13.416Z,3.00
2022-07-25T19:18:41.787Z,3.35
2022-07-25T19:21:10.014Z,2.88
2022-07-25T19:23:37.959Z,2.70
2022-07-25T19:26:04.985Z,2.70
2022-07-25T19:28:31.793Z,2.90
2022-07-25T19:30:58.992Z,2.63
2022-07-25T19:33:25.866Z,3.28
2022-07-25T19:36:02.150Z,3.40
2022-07-25T19:38:30.314Z,3.17
2022-07-25T19:40:57.061Z,3.38
2022-07-25T19:43:27.180Z,3.40
2022-07-25T19:45:55.026Z,3.15
2022-07-25T19:48:21.810Z,3.10
2022-07-25T19:50:48.536Z,2.92
2022-07-25T19:53:15.377Z,2.83
2022-07-25T19:55:44.154Z,3.40
2022-07-25T19:58:10.851Z,3.47
2022-07-25T20:00:38.372Z,3.28
2022-07-25T20:03:05.578Z,2.88
2022-07-25T20:05:32.798Z,3.38
2022-07-25T20:07:59.607Z,3.17
2022-07-25T20:10:26.759Z,3.40
2022-07-25T20:12:59.545Z,3.20
2022-07-25T20:15:28.429Z,2.92
2022-07-25T20:17:56.098Z,2.95
2022-07-25T20:20:22.926Z,3.45
2022-07-25T20:22:49.910Z,3.17
2022-07-25T20:25:16.916Z,3.05
2022-07-25T20:27:43.748Z,3.00
2022-07-25T20:30:12.886Z,2.47
2022-07-25T20:32:39.657Z,3.17
2022-07-25T20:35:07.439Z,3.58
2022-07-25T20:37:34.175Z,3.38
2022-07-25T20:40:08.637Z,3.40
2022-07-25T20:42:36.864Z,3.40
2022-07-25T20:45:04.083Z,2.83
2022-07-25T20:47:35.761Z,3.17
2022-07-25T20:50:03.990Z,3.33
2022-07-25T20:52:30.880Z,3.22
2022-07-25T20:54:57.832Z,3.75
2022-07-25T20:57:24.603Z,2.72
2022-07-25T20:59:51.524Z,3.47
2022-07-25T21:02:18.572Z,3.60
2022-07-25T21:04:59.098Z,3.33
2022-07-25T21:07:25.988Z,3.35
2022-07-25T21:13:57.894Z,3.00
2022-07-25T21:17:01.752Z,3.03
2022-07-25T21:23:39.347Z,3.63
2022-07-25T21:26:37.580Z,3.53
2022-07-25T21:35:25.615Z,3.35
2022-07-25T21:41:05.124Z,3.17
2022-07-25T21:43:56.860Z,3.08
2022-07-25T21:47:03.061Z,3.92
2022-07-25T21:50:19.309Z,3.33
2022-07-25T21:53:38.741Z,3.45
2022-07-25T22:00:33.437Z,3.35
2022-07-25T22:09:51.919Z,3.92
2022-07-25T22:12:23.838Z,3.30
2022-07-25T22:20:56.631Z,3.58
2022-07-25T22:26:40.955Z,4.72
2022-07-25T22:29:55.513Z,3.85
2022-07-25T22:32:31.466Z,3.40
2022-07-25T22:38:04.422Z,3.90
2022-07-25T22:41:04.691Z,3.72
2022-07-25T22:43:58.453Z,4.32
2022-07-25T22:46:48.404Z,3.50
2022-07-25T22:49:41.723Z,3.85
2022-07-25T22:55:20.747Z,4.78
2022-07-25T22:58:19.618Z,3.70
2022-07-25T23:01:02.630Z,3.15
2022-07-25T23:06:37.939Z,4.30
2022-07-25T23:09:24.591Z,4.65
2022-07-25T23:12:12.948Z,3.00
2022-07-25T23:20:35.513Z,2.85
2022-07-25T23:23:39.546Z,2.72
2022-07-25T23:26:12.564Z,2.70
2022-07-25T23:28:44.340Z,2.85
2022-07-25T23:31:20.496Z,2.75
2022-07-25T23:33:51.654Z,3.22
2022-07-25T23:36:33.799Z,3.00
2022-07-25T23:39:26.969Z,3.33
2022-07-25T23:41:56.407Z,2.97
2022-07-25T23:44:23.817Z,3.17
2022-07-25T23:47:21.221Z,3.28
2022-07-25T23:50:10.023Z,2.92
2022-07-25T23:59:08.103Z,3.20
